createdAt,value
2022-08-28T00:02:01.819Z,8.43
2022-08-28T00:04:53.486Z,10.37
2022-08-28T00:07:47.803Z,10.30
2022-08-28T00:10:41.528Z,10.47
2022-08-28T00:13:32.858Z,9.37
2022-08-28T00:16:24.424Z,12.90
2022-08-28T00:19:18.608Z,13.40
2022-08-28T00:22:10.122Z,10.53
2022-08-28T00:25:01.476Z,12.90
2022-08-28T00:27:55.052Z,12.47
2022-08-28T00:30:48.377Z,13.20
2022-08-28T00:33:40.744Z,10.77
2022-08-28T00:36:31.974Z,11.77
2022-08-28T00:39:23.130Z,11.43
2022-08-28T00:42:14.660Z,11.53
2022-08-28T00:45:08.355Z,13.63
2022-08-28T00:47:59.825Z,16.87
2022-08-28T00:51:09.010Z,10.70
2022-08-28T00:54:04.275Z,13.67
2022-08-28T00:56:58.756Z,12.83
2022-08-28T00:59:49.880Z,14.20
2022-08-28T01:02:44.057Z,12.33
2022-08-28T01:05:35.786Z,11.10
2022-08-28T01:08:30.297Z,10.17
2022-08-28T01:11:22.008Z,12.67
2022-08-28T01:14:13.971Z,9.67
2022-08-28T01:17:05.967Z,10.37
2022-08-28T01:20:00.301Z,13.90
2022-08-28T01:22:57.357Z,12.03
2022-08-28T01:25:49.845Z,12.73
2022-08-28T01:28:40.970Z,11.23
2022-08-28T01:31:32.765Z,10.90
2022-08-28T01:34:24.311Z,11.33
2022-08-28T01:37:15.761Z,12.37
2022-08-28T01:40:09.387Z,11.43
2022-08-28T01:43:09.460Z,8.57
2022-08-28T01:46:02.339Z,12.07
2022-08-28T01:48:53.881Z,12.13
2022-08-28T01:51:45.113Z,12.23
2022-08-28T01:54:36.976Z,13.90
2022-08-28T01:57:30.414Z,11.83
2022-08-28T02:00:26.987Z,12.33
2022-08-28T02:03:18.407Z,13.33
2022-08-28T02:06:09.747Z,14.00
2022-08-28T02:09:01.146Z,10.90
2022-08-28T02:11:52.763Z,15.47
2022-08-28T02:14:44.496Z,12.57
2022-08-28T02:17:36.968Z,14.93
2022-08-28T02:20:29.122Z,15.33
2022-08-28T02:23:20.620Z,14.33
2022-08-28T02:26:12.423Z,16.23
2022-08-28T02:29:03.971Z,17.07
2022-08-28T02:31:55.849Z,14.97
2022-08-28T02:34:50.801Z,11.40
2022-08-28T02:37:44.415Z,13.40
2022-08-28T02:40:37.323Z,14.87
2022-08-28T02:43:28.481Z,15.53
2022-08-28T02:46:19.997Z,16.10
2022-08-28T02:49:11.044Z,15.67
2022-08-28T02:52:03.729Z,11.67
2022-08-28T02:54:54.955Z,15.47
2022-08-28T02:57:47.063Z,14.43
2022-08-28T03:00:38.324Z,16.47
2022-08-28T03:03:31.130Z,13.83
2022-08-28T03:06:23.110Z,15.97
2022-08-28T03:09:15.757Z,14.17
2022-08-28T03:12:07.277Z,12.20
2022-08-28T03:14:58.699Z,11.10
2022-08-28T03:17:50.071Z,11.67
2022-08-28T03:20:41.958Z,14.07
2022-08-28T03:23:33.246Z,13.13
2022-08-28T03:26:25.912Z,14.60
2022-08-28T03:29:17.091Z,19.17
2022-08-28T03:32:08.213Z,12.57
2022-08-28T03:34:59.325Z,11.93
2022-08-28T03:37:50.532Z,14.07
2022-08-28T03:40:42.699Z,11.17
2022-08-28T03:43:38.012Z,13.13
2022-08-28T03:46:30.063Z,16.93
2022-08-28T03:49:21.680Z,15.07
2022-08-28T03:52:13.190Z,11.57
2022-08-28T03:55:04.997Z,11.90
2022-08-28T03:57:56.409Z,13.57
2022-08-28T04:00:49.965Z,12.27
2022-08-28T04:03:41.458Z,11.43
2022-08-28T04:06:33.033Z,10.83
2022-08-28T04:09:27.309Z,10.80
2022-08-28T04:12:18.706Z,11.57
2022-08-28T04:15:10.955Z,8.90
2022-08-28T04:18:03.800Z,10.10
2022-08-28T04:20:59.029Z,11.53
2022-08-28T04:23:50.444Z,10.30
2022-08-28T04:26:41.791Z,11.17
2022-08-28T04:29:33.043Z,8.50
2022-08-28T04:32:24.427Z,10.93
2022-08-28T04:35:17.316Z,11.40
2022-08-28T04:38:08.620Z,11.63
2022-08-28T04:40:59.862Z,10.27
2022-08-28T04:43:52.789Z,10.40
2022-08-28T04:46:44.187Z,12.50
2022-08-28T04:49:39.330Z,7.93
2022-08-28T04:52:31.835Z,7.60
2022-08-28T04:55:52.281Z,10.10
2022-08-28T04:58:34.569Z,9.20
2022-08-28T05:01:25.948Z,12.07
2022-08-28T05:04:17.736Z,10.00
2022-08-28T05:07:09.055Z,9.20
2022-08-28T05:10:01.467Z,7.87
2022-08-28T05:12:52.728Z,7.73
2022-08-28T05:15:44.876Z,14.17
2022-08-28T05:18:36.313Z,12.07
2022-08-28T05:21:27.841Z,9.70
2022-08-28T05:24:19.681Z,13.50
2022-08-28T05:27:12.432Z,12.97
2022-08-28T05:30:03.732Z,16.70
2022-08-28T05:32:55.165Z,9.20
2022-08-28T05:35:47.644Z,9.77
2022-08-28T05:38:39.104Z,11.03
2022-08-28T05:41:31.435Z,10.57
2022-08-28T05:44:24.398Z,12.40
2022-08-28T05:47:16.701Z,14.67
2022-08-28T05:50:14.013Z,13.37
2022-08-28T05:53:05.587Z,13.37
2022-08-28T05:55:57.207Z,9.60
2022-08-28T05:58:48.903Z,12.00
2022-08-28T06:01:42.847Z,16.47
2022-08-28T06:04:34.272Z,10.60
2022-08-28T06:07:25.539Z,10.70
2022-08-28T06:10:17.164Z,9.17
2022-08-28T06:13:10.086Z,13.23
2022-08-28T06:16:01.309Z,9.43
2022-08-28T06:18:53.882Z,13.00
2022-08-28T06:21:46.945Z,16.63
2022-08-28T06:24:38.292Z,15.77
2022-08-28T06:27:33.114Z,15.57
2022-08-28T06:30:24.542Z,10.10
2022-08-28T06:33:16.831Z,12.73
2022-08-28T06:36:11.338Z,11.80
2022-08-28T06:39:03.214Z,13.63
2022-08-28T06:41:54.578Z,12.17
2022-08-28T06:44:45.874Z,14.80
2022-08-28T06:47:37.177Z,14.90
2022-08-28T06:50:28.725Z,14.87
2022-08-28T06:53:22.870Z,13.87
2022-08-28T06:56:25.567Z,9.87
2022-08-28T06:59:18.137Z,14.37
2022-08-28T07:02:09.567Z,16.70
2022-08-28T07:05:01.234Z,12.77
2022-08-28T07:07:52.583Z,11.70
2022-08-28T07:10:45.568Z,14.87
2022-08-28T07:13:37.632Z,15.37
2022-08-28T07:16:29.932Z,13.00
2022-08-28T07:19:21.118Z,14.83
2022-08-28T07:22:12.556Z,11.97
2022-08-28T07:25:04.684Z,17.93
2022-08-28T07:27:57.293Z,11.63
2022-08-28T07:30:58.090Z,13.70
2022-08-28T07:33:53.506Z,13.93
2022-08-28T07:36:45.477Z,13.97
2022-08-28T07:39:36.849Z,15.10
2022-08-28T07:42:45.824Z,13.60
2022-08-28T07:45:38.808Z,12.97
2022-08-28T07:48:29.961Z,11.77
2022-08-28T07:51:21.250Z,12.33
2022-08-28T07:54:17.732Z,20.90
2022-08-28T07:57:10.700Z,10.87
2022-08-28T08:00:02.172Z,12.47
2022-08-28T08:02:54.778Z,14.33
2022-08-28T08:05:52.653Z,13.00
2022-08-28T08:08:45.398Z,11.23
2022-08-28T08:11:36.981Z,10.33
2022-08-28T08:14:28.436Z,12.10
2022-08-28T08:17:19.812Z,13.43
2022-08-28T08:20:15.235Z,13.30
2022-08-28T08:23:09.374Z,11.53
2022-08-28T08:26:01.276Z,14.67
2022-08-28T08:28:53.142Z,9.73
2022-08-28T08:31:44.525Z,13.23
2022-08-28T08:34:38.666Z,11.10
2022-08-28T08:37:31.227Z,10.60
2022-08-28T08:40:23.944Z,11.10
2022-08-28T08:43:15.239Z,9.83
2022-08-28T08:46:08.394Z,15.53
2022-08-28T08:49:02.464Z,13.93
2022-08-28T08:52:00.336Z,12.77
2022-08-28T08:55:02.230Z,12.07
2022-08-28T08:57:56.891Z,11.70
2022-08-28T09:00:53.329Z,17.40
2022-08-28T09:03:48.596Z,15.73
2022-08-28T09:06:42.466Z,11.83
2022-08-28T09:09:35.222Z,12.20
2022-08-28T09:12:28.871Z,13.23
2022-08-28T09:15:24.728Z,10.67
2022-08-28T09:18:19.865Z,16.40
2022-08-28T09:21:11.780Z,11.00
2022-08-28T09:24:05.719Z,16.83
2022-08-28T09:27:03.479Z,17.60
2022-08-28T09:30:02.557Z,13.33
2022-08-28T09:33:01.029Z,11.43
2022-08-28T09:35:52.112Z,11.67
2022-08-28T09:38:43.254Z,13.47
2022-08-28T09:41:54.085Z,10.10
2022-08-28T09:44:51.387Z,12.97
2022-08-28T09:47:48.728Z,10.67
2022-08-28T09:50:41.713Z,13.30
2022-08-28T09:53:33.865Z,12.80
2022-08-28T09:56:28.543Z,9.90
2022-08-28T09:59:20.854Z,13.03
2022-08-28T10:02:20.385Z,18.23
2022-08-28T10:05:16.306Z,12.90
2022-08-28T10:08:12.376Z,14.07
2022-08-28T10:11:08.303Z,12.37
2022-08-28T10:14:03.667Z,13.13
2022-08-28T10:17:00.919Z,15.17
2022-08-28T10:19:55.252Z,12.43
2022-08-28T10:22:52.278Z,12.53
2022-08-28T10:25:47.093Z,12.87
2022-08-28T10:28:46.160Z,15.93
2022-08-28T10:31:41.535Z,13.10
2022-08-28T10:34:38.521Z,16.27
2022-08-28T10:37:35.880Z,15.10
2022-08-28T10:40:29.958Z,18.47
2022-08-28T10:43:25.156Z,15.17
2022-08-28T10:46:24.113Z,18.83
2022-08-28T10:49:20.377Z,14.97
2022-08-28T10:52:12.452Z,15.03
2022-08-28T10:55:05.345Z,17.80
2022-08-28T10:57:59.201Z,17.17
2022-08-28T11:00:50.818Z,15.47
2022-08-28T11:03:44.631Z,11.30
2022-08-28T11:06:38.128Z,13.87
2022-08-28T11:09:32.386Z,15.63
2022-08-28T11:12:38.073Z,13.90
2022-08-28T11:15:44.576Z,16.20
2022-08-28T11:18:43.539Z,14.70
2022-08-28T11:21:37.232Z,16.40
2022-08-28T11:24:32.826Z,14.20
2022-08-28T11:27:26.998Z,12.57
2022-08-28T11:30:30.695Z,13.47
2022-08-28T11:33:38.075Z,15.37
2022-08-28T11:36:48.121Z,16.27
2022-08-28T11:39:39.896Z,13.23
2022-08-28T11:42:38.172Z,11.93
2022-08-28T11:45:59.295Z,13.87
2022-08-28T11:48:53.373Z,12.23
2022-08-28T11:51:53.735Z,15.13
2022-08-28T11:54:49.344Z,12.93
2022-08-28T11:57:48.634Z,18.53
2022-08-28T12:00:50.402Z,12.93
2022-08-28T12:03:42.774Z,12.73
2022-08-28T12:06:49.065Z,14.00
2022-08-28T12:09:42.594Z,14.37
2022-08-28T12:12:53.980Z,14.87
2022-08-28T12:15:45.427Z,13.10
2022-08-28T12:18:55.425Z,11.40
2022-08-28T12:21:48.344Z,14.13
2022-08-28T12:24:45.539Z,11.53
2022-08-28T12:27:38.450Z,11.53
2022-08-28T12:30:32.162Z,11.80
2022-08-28T12:33:26.320Z,12.93
2022-08-28T12:36:19.613Z,15.73
2022-08-28T12:39:16.267Z,11.93
2022-08-28T12:42:15.656Z,10.70
2022-08-28T12:45:08.718Z,9.90
2022-08-28T12:48:01.995Z,8.00
2022-08-28T12:51:00.602Z,11.20
2022-08-28T12:53:55.804Z,12.23
2022-08-28T12:56:48.522Z,12.50
2022-08-28T12:59:40.907Z,9.37
2022-08-28T13:02:33.943Z,13.70
2022-08-28T13:05:30.062Z,12.80
2022-08-28T13:08:23.066Z,12.23
2022-08-28T13:11:19.545Z,12.03
2022-08-28T13:14:12.612Z,14.27
2022-08-28T13:17:04.386Z,11.30
2022-08-28T13:20:02.660Z,10.00
2022-08-28T13:22:54.342Z,10.67
2022-08-28T13:25:46.132Z,12.27
2022-08-28T13:28:38.034Z,12.47
2022-08-28T13:31:33.260Z,12.90
2022-08-28T13:34:26.191Z,10.57
2022-08-28T13:37:32.326Z,8.67
2022-08-28T13:40:55.728Z,10.93
2022-08-28T13:43:44.114Z,11.43
2022-08-28T13:46:38.657Z,8.33
2022-08-28T13:49:30.413Z,8.47
2022-08-28T13:52:21.713Z,9.70
2022-08-28T13:55:13.533Z,6.83
2022-08-28T13:58:04.851Z,10.43
2022-08-28T14:00:56.193Z,8.37
2022-08-28T14:03:47.555Z,9.40
2022-08-28T14:06:38.849Z,6.73
2022-08-28T14:09:30.127Z,9.20
2022-08-28T14:12:21.370Z,7.97
2022-08-28T14:15:20.043Z,11.80
2022-08-28T14:18:11.155Z,9.20
2022-08-28T14:21:05.081Z,7.93
2022-08-28T14:23:56.483Z,11.57
2022-08-28T14:26:47.817Z,10.00
2022-08-28T14:29:39.359Z,8.13
2022-08-28T14:32:30.606Z,7.07
2022-08-28T14:35:21.707Z,9.23
2022-08-28T14:38:14.416Z,13.07
2022-08-28T14:41:08.500Z,6.43
2022-08-28T14:44:00.167Z,9.80
2022-08-28T14:46:52.671Z,8.03
2022-08-28T14:49:48.839Z,12.53
2022-08-28T14:52:40.686Z,10.77
2022-08-28T14:55:33.584Z,9.40
2022-08-28T14:58:24.936Z,11.33
2022-08-28T15:01:22.320Z,7.90
2022-08-28T15:04:14.254Z,7.13
2022-08-28T15:07:07.195Z,6.80
2022-08-28T15:09:58.590Z,7.57
2022-08-28T15:12:51.028Z,8.80
2022-08-28T15:15:43.683Z,9.20
2022-08-28T15:18:35.482Z,7.47
2022-08-28T15:21:28.454Z,8.73
2022-08-28T15:24:20.677Z,9.70
2022-08-28T15:27:12.163Z,10.53
2022-08-28T15:30:05.214Z,9.07
2022-08-28T15:32:56.727Z,8.87
2022-08-28T15:35:48.010Z,10.40
2022-08-28T15:38:53.182Z,6.67
2022-08-28T15:41:47.794Z,9.10
2022-08-28T15:44:39.062Z,7.70
2022-08-28T15:47:31.730Z,7.33
2022-08-28T15:50:23.431Z,10.80
2022-08-28T15:53:14.909Z,8.40
2022-08-28T15:56:09.485Z,7.03
2022-08-28T15:59:00.911Z,9.47
2022-08-28T16:01:52.172Z,7.70
2022-08-28T16:04:44.732Z,6.87
2022-08-28T16:07:36.535Z,6.87
2022-08-28T16:10:28.208Z,7.93
2022-08-28T16:13:20.099Z,6.23
2022-08-28T16:16:11.819Z,8.47
2022-08-28T16:19:03.656Z,6.87
2022-08-28T16:21:56.437Z,6.00
2022-08-28T16:24:47.871Z,6.47
2022-08-28T16:27:41.618Z,10.80
2022-08-28T16:30:33.693Z,6.87
2022-08-28T16:33:27.059Z,11.77
2022-08-28T16:36:18.692Z,7.53
2022-08-28T16:39:13.997Z,6.03
2022-08-28T16:42:05.465Z,7.77
2022-08-28T16:44:57.385Z,6.63
2022-08-28T16:47:49.275Z,10.17
2022-08-28T16:50:40.735Z,9.40
2022-08-28T16:53:32.293Z,10.70
2022-08-28T16:56:26.720Z,7.77
2022-08-28T16:59:18.303Z,9.13
2022-08-28T17:02:09.892Z,7.47
2022-08-28T17:05:04.951Z,8.87
2022-08-28T17:07:56.433Z,9.00
2022-08-28T17:10:47.574Z,7.47
2022-08-28T17:13:40.215Z,7.77
2022-08-28T17:16:32.316Z,10.37
2022-08-28T17:19:24.809Z,6.10
2022-08-28T17:22:33.555Z,8.53
2022-08-28T17:25:25.326Z,9.07
2022-08-28T17:28:16.907Z,7.93
2022-08-28T17:31:09.647Z,7.77
2022-08-28T17:34:01.003Z,8.07
2022-08-28T17:36:54.901Z,7.97
2022-08-28T17:39:46.245Z,9.37
2022-08-28T17:42:37.527Z,9.67
2022-08-28T17:45:29.800Z,7.97
2022-08-28T17:48:22.399Z,7.37
2022-08-28T17:51:13.636Z,12.13
2022-08-28T17:54:08.511Z,7.00
2022-08-28T17:57:00.054Z,7.87
2022-08-28T17:59:54.090Z,6.57
2022-08-28T18:02:46.338Z,11.50
2022-08-28T18:05:41.125Z,7.70
2022-08-28T18:08:32.797Z,7.73
2022-08-28T18:11:25.053Z,9.27
2022-08-28T18:14:16.250Z,7.90
2022-08-28T18:17:09.151Z,5.33
2022-08-28T18:20:00.893Z,8.33
2022-08-28T18:22:53.665Z,6.27
2022-08-28T18:25:50.640Z,7.27
2022-08-28T18:28:42.157Z,7.27
2022-08-28T18:31:33.611Z,9.47
2022-08-28T18:34:24.851Z,9.37
2022-08-28T18:37:16.458Z,9.33
2022-08-28T18:40:10.027Z,6.53
2022-08-28T18:43:04.483Z,8.27
2022-08-28T18:45:58.121Z,5.77
2022-08-28T18:48:49.835Z,7.50
2022-08-28T18:51:43.051Z,7.90
2022-08-28T18:54:34.133Z,6.93
2022-08-28T18:57:26.804Z,7.60
2022-08-28T19:00:18.817Z,6.93
2022-08-28T19:03:10.335Z,4.53
2022-08-28T19:06:02.016Z,8.87
2022-08-28T19:08:53.520Z,7.53
2022-08-28T19:11:44.795Z,6.23
2022-08-28T19:14:37.579Z,6.20
2022-08-28T19:17:29.343Z,6.27
2022-08-28T19:20:21.207Z,6.47
2022-08-28T19:23:17.268Z,6.80
2022-08-28T19:26:09.751Z,7.13
2022-08-28T19:29:01.417Z,6.80
2022-08-28T19:31:54.097Z,8.40
2022-08-28T19:34:45.273Z,7.47
2022-08-28T19:37:39.740Z,7.23
2022-08-28T19:40:34.160Z,5.23
2022-08-28T19:43:25.352Z,5.20
2022-08-28T19:46:35.968Z,4.70
2022-08-28T19:49:29.660Z,6.87
2022-08-28T19:52:21.351Z,6.87
2022-08-28T19:55:16.744Z,7.63
2022-08-28T19:58:10.363Z,5.57
2022-08-28T20:01:01.713Z,7.43
2022-08-28T20:03:53.548Z,6.40
2022-08-28T20:06:46.884Z,5.90
2022-08-28T20:09:39.532Z,8.37
2022-08-28T20:12:30.777Z,7.73
2022-08-28T20:15:24.017Z,6.13
2022-08-28T20:18:15.534Z,6.80
2022-08-28T20:21:11.042Z,6.07
2022-08-28T20:24:03.837Z,7.60
2022-08-28T20:26:55.189Z,5.17
2022-08-28T20:29:46.731Z,8.00
2022-08-28T20:32:40.856Z,6.60
2022-08-28T20:35:33.318Z,8.90
2022-08-28T20:38:24.500Z,7.47
2022-08-28T20:41:18.498Z,11.77
2022-08-28T20:44:10.702Z,7.10
2022-08-28T20:47:02.150Z,7.43
2022-08-28T20:49:53.163Z,7.27
2022-08-28T20:52:44.568Z,6.90
2022-08-28T20:55:35.859Z,9.03
2022-08-28T20:58:28.751Z,7.47
2022-08-28T21:01:20.021Z,4.90
2022-08-28T21:04:11.414Z,6.80
2022-08-28T21:07:02.703Z,5.77
2022-08-28T21:10:05.828Z,5.77
2022-08-28T21:12:58.426Z,6.23
2022-08-28T21:15:50.922Z,10.30
2022-08-28T21:18:53.821Z,6.50
2022-08-28T21:21:53.724Z,7.67
2022-08-28T21:24:44.807Z,8.63
2022-08-28T21:27:36.432Z,7.30
2022-08-28T21:30:29.688Z,7.23
2022-08-28T21:33:22.597Z,6.70
2022-08-28T21:36:15.148Z,8.23
2022-08-28T21:39:06.805Z,7.80
2022-08-28T21:41:58.433Z,9.10
2022-08-28T21:44:51.965Z,8.20
2022-08-28T21:47:44.177Z,9.00
2022-08-28T21:50:36.933Z,5.90
2022-08-28T21:53:28.167Z,9.87
2022-08-28T21:56:20.436Z,8.73
2022-08-28T21:59:12.065Z,12.60
2022-08-28T22:02:03.963Z,8.27
2022-08-28T22:04:55.348Z,8.47
2022-08-28T22:07:48.299Z,7.47
2022-08-28T22:10:40.640Z,5.90
2022-08-28T22:13:31.923Z,8.53
2022-08-28T22:16:23.616Z,11.47
2022-08-28T22:19:15.216Z,8.77
2022-08-28T22:22:24.142Z,7.73
2022-08-28T22:25:16.859Z,7.23
2022-08-28T22:28:08.443Z,10.60
2022-08-28T22:30:59.636Z,5.67
2022-08-28T22:33:51.287Z,7.17
2022-08-28T22:36:42.569Z,9.33
2022-08-28T22:39:34.055Z,6.47
2022-08-28T22:42:26.649Z,8.60
2022-08-28T22:45:18.019Z,6.97
2022-08-28T22:48:10.421Z,9.13
2022-08-28T22:51:05.980Z,8.63
2022-08-28T22:53:57.397Z,6.27
2022-08-28T22:56:48.644Z,5.70
2022-08-28T22:59:41.871Z,13.10
2022-08-28T23:02:33.105Z,7.37
2022-08-28T23:05:24.985Z,9.13
2022-08-28T23:08:16.501Z,7.87
2022-08-28T23:11:07.988Z,6.50
2022-08-28T23:13:59.073Z,9.87
2022-08-28T23:16:51.929Z,6.93
2022-08-28T23:19:43.404Z,7.40
2022-08-28T23:22:37.978Z,11.13
2022-08-28T23:25:29.423Z,6.00
2022-08-28T23:28:21.339Z,9.30
2022-08-28T23:31:12.739Z,8.10
2022-08-28T23:34:06.104Z,10.20
2022-08-28T23:36:57.184Z,7.83
2022-08-28T23:39:49.935Z,9.77
2022-08-28T23:42:42.525Z,7.80
2022-08-28T23:45:33.952Z,7.57
2022-08-28T23:48:25.421Z,8.80
2022-08-28T23:51:18.327Z,5.83
2022-08-28T23:54:10.849Z,10.17
2022-08-28T23:57:02.072Z,6.57
2022-08-28T23:59:56.856Z,7.13
